createdAt,value
2022-08-24T00:00:30.047Z,3.83
2022-08-24T00:02:57.336Z,4.25
2022-08-24T00:05:24.647Z,3.72
2022-08-24T00:07:51.883Z,4.03
2022-08-24T00:10:22.219Z,4.30
2022-08-24T00:12:50.943Z,3.90
2022-08-24T00:15:18.095Z,3.97
2022-08-24T00:17:45.396Z,3.70
2022-08-24T00:20:13.319Z,3.97
2022-08-24T00:22:41.191Z,4.60
2022-08-24T00:25:09.674Z,4.10
2022-08-24T00:27:37.079Z,4.10
2022-08-24T00:30:05.935Z,3.50
2022-08-24T00:32:33.170Z,3.95
2022-08-24T00:35:00.695Z,3.97
2022-08-24T00:37:29.061Z,4.10
2022-08-24T00:39:57.058Z,3.80
2022-08-24T00:42:24.675Z,3.72
2022-08-24T00:44:52.150Z,3.90
2022-08-24T00:47:22.435Z,3.20
2022-08-24T00:49:55.638Z,3.60
2022-08-24T00:52:28.174Z,3.28
2022-08-24T00:55:15.743Z,3.03
2022-08-24T00:57:44.744Z,3.47
2022-08-24T01:00:19.462Z,3.38
2022-08-24T01:02:48.912Z,3.35
2022-08-24T01:05:19.155Z,3.33
2022-08-24T01:07:50.720Z,3.42
2022-08-24T01:10:21.808Z,3.30
2022-08-24T01:13:00.415Z,3.08
2022-08-24T01:15:28.798Z,3.28
2022-08-24T01:18:14.991Z,3.60
2022-08-24T01:20:43.871Z,3.42
2022-08-24T01:23:30.163Z,3.20
2022-08-24T01:26:04.023Z,3.65
2022-08-24T01:28:31.689Z,3.00
2022-08-24T01:31:00.009Z,3.30
2022-08-24T01:33:28.975Z,4.35
2022-08-24T01:35:58.957Z,3.53
2022-08-24T01:38:26.469Z,3.33
2022-08-24T01:40:55.758Z,3.63
2022-08-24T01:43:24.123Z,2.92
2022-08-24T01:45:51.747Z,3.80
2022-08-24T01:48:22.985Z,3.70
2022-08-24T01:50:50.562Z,3.67
2022-08-24T01:53:17.869Z,3.42
2022-08-24T01:55:45.232Z,3.60
2022-08-24T01:58:12.513Z,3.60
2022-08-24T02:00:39.780Z,3.53
2022-08-24T02:03:07.502Z,3.97
2022-08-24T02:05:35.142Z,3.63
2022-08-24T02:08:02.507Z,3.75
2022-08-24T02:10:30.145Z,3.97
2022-08-24T02:12:58.774Z,3.60
2022-08-24T02:15:27.390Z,3.55
2022-08-24T02:17:55.123Z,3.90
2022-08-24T02:20:22.578Z,3.65
2022-08-24T02:22:50.796Z,3.90
2022-08-24T02:25:18.081Z,3.88
2022-08-24T02:27:45.213Z,3.80
2022-08-24T02:30:12.642Z,3.70
2022-08-24T02:32:42.585Z,4.10
2022-08-24T02:35:10.434Z,4.22
2022-08-24T02:37:43.234Z,3.63
2022-08-24T02:40:12.515Z,4.10
2022-08-24T02:42:39.811Z,4.20
2022-08-24T02:45:07.391Z,3.90
2022-08-24T02:47:38.980Z,4.40
2022-08-24T02:50:07.351Z,4.53
2022-08-24T02:52:35.903Z,4.35
2022-08-24T02:55:03.077Z,4.47
2022-08-24T02:57:30.325Z,4.63
2022-08-24T02:59:57.449Z,4.30
2022-08-24T03:02:24.648Z,4.18
2022-08-24T03:04:51.816Z,4.63
2022-08-24T03:07:18.979Z,4.10
2022-08-24T03:09:46.222Z,4.40
2022-08-24T03:12:13.378Z,4.18
2022-08-24T03:14:40.847Z,4.43
2022-08-24T03:17:08.014Z,4.70
2022-08-24T03:19:35.212Z,4.47
2022-08-24T03:22:02.416Z,4.18
2022-08-24T03:24:29.630Z,4.43
2022-08-24T03:26:56.797Z,4.70
2022-08-24T03:29:26.674Z,4.78
2022-08-24T03:31:53.811Z,4.20
2022-08-24T03:34:20.979Z,4.18
2022-08-24T03:36:48.111Z,4.30
2022-08-24T03:39:15.631Z,4.55
2022-08-24T03:41:43.352Z,4.20
2022-08-24T03:44:10.495Z,4.45
2022-08-24T03:46:38.743Z,4.65
2022-08-24T03:49:08.558Z,4.72
2022-08-24T03:51:35.781Z,4.63
2022-08-24T03:54:03.435Z,4.90
2022-08-24T03:56:30.619Z,4.40
2022-08-24T03:58:57.822Z,4.35
2022-08-24T04:01:26.210Z,4.50
2022-08-24T04:03:54.212Z,4.43
2022-08-24T04:06:22.013Z,4.88
2022-08-24T04:08:49.627Z,4.50
2022-08-24T04:11:18.284Z,4.50
2022-08-24T04:13:46.675Z,4.47
2022-08-24T04:16:15.149Z,4.22
2022-08-24T04:18:42.414Z,4.50
2022-08-24T04:21:20.371Z,4.57
2022-08-24T04:23:48.171Z,4.65
2022-08-24T04:26:15.815Z,5.13
2022-08-24T04:28:43.104Z,5.00
2022-08-24T04:31:10.285Z,5.07
2022-08-24T04:33:38.386Z,4.60
2022-08-24T04:36:09.531Z,4.97
2022-08-24T04:38:37.550Z,4.47
2022-08-24T04:41:07.350Z,4.82
2022-08-24T04:43:34.938Z,5.13
2022-08-24T04:46:07.460Z,4.53
2022-08-24T04:48:35.163Z,4.82
2022-08-24T04:51:03.301Z,5.20
2022-08-24T04:53:31.713Z,4.63
2022-08-24T04:55:59.450Z,4.60
2022-08-24T04:58:26.928Z,4.72
2022-08-24T05:00:54.875Z,4.53
2022-08-24T05:03:22.256Z,4.50
2022-08-24T05:05:51.044Z,4.95
2022-08-24T05:08:19.507Z,4.40
2022-08-24T05:10:47.591Z,4.38
2022-08-24T05:13:15.667Z,5.00
2022-08-24T05:15:43.925Z,4.70
2022-08-24T05:18:11.974Z,4.80
2022-08-24T05:20:43.175Z,4.35
2022-08-24T05:23:10.670Z,4.38
2022-08-24T05:25:38.459Z,4.22
2022-08-24T05:28:05.634Z,4.40
2022-08-24T05:30:32.966Z,4.45
2022-08-24T05:33:00.455Z,4.20
2022-08-24T05:35:27.718Z,4.20
2022-08-24T05:37:54.924Z,4.25
2022-08-24T05:40:23.549Z,3.97
2022-08-24T05:42:50.771Z,4.18
2022-08-24T05:45:17.991Z,4.30
2022-08-24T05:47:45.389Z,3.72
2022-08-24T05:50:12.538Z,4.03
2022-08-24T05:52:39.767Z,3.83
2022-08-24T05:55:07.321Z,3.80
2022-08-24T05:57:35.963Z,3.70
2022-08-24T06:00:04.304Z,3.58
2022-08-24T06:02:31.628Z,3.85
2022-08-24T06:04:58.849Z,4.13
2022-08-24T06:07:26.880Z,3.47
2022-08-24T06:09:54.209Z,3.30
2022-08-24T06:12:21.411Z,4.00
2022-08-24T06:14:48.837Z,3.47
2022-08-24T06:17:16.250Z,3.20
2022-08-24T06:19:43.841Z,3.45
2022-08-24T06:22:11.052Z,4.05
2022-08-24T06:24:58.990Z,3.65
2022-08-24T06:27:26.395Z,3.50
2022-08-24T06:29:58.541Z,3.53
2022-08-24T06:32:25.873Z,3.33
2022-08-24T06:34:56.435Z,3.10
2022-08-24T06:37:29.339Z,3.28
2022-08-24T06:39:57.821Z,2.60
2022-08-24T06:42:25.141Z,3.00
2022-08-24T06:44:52.909Z,3.00
2022-08-24T06:47:20.204Z,3.30
2022-08-24T06:49:47.440Z,2.80
2022-08-24T06:52:14.747Z,2.97
2022-08-24T06:54:42.682Z,3.08
2022-08-24T06:57:09.827Z,2.75
2022-08-24T06:59:36.986Z,2.60
2022-08-24T07:02:04.272Z,2.55
2022-08-24T07:04:33.627Z,2.67
2022-08-24T07:07:00.800Z,2.67
2022-08-24T07:09:28.001Z,2.95
2022-08-24T07:11:55.409Z,2.83
2022-08-24T07:14:22.733Z,2.40
2022-08-24T07:16:49.901Z,2.40
2022-08-24T07:19:17.052Z,2.40
2022-08-24T07:21:44.236Z,2.40
2022-08-24T07:24:11.506Z,2.40
2022-08-24T07:26:39.305Z,2.20
2022-08-24T07:29:30.351Z,2.20
2022-08-24T07:31:57.138Z,2.08
2022-08-24T07:34:24.430Z,2.15
2022-08-24T07:36:52.982Z,2.20
2022-08-24T07:39:20.107Z,2.33
2022-08-24T07:42:11.126Z,2.45
2022-08-24T07:44:34.426Z,2.35
2022-08-24T07:47:15.345Z,2.45
2022-08-24T07:49:49.274Z,2.10
2022-08-24T07:52:16.639Z,2.03
2022-08-24T07:54:43.813Z,2.22
2022-08-24T07:57:11.005Z,2.22
2022-08-24T07:59:38.291Z,1.92
2022-08-24T08:02:05.765Z,1.80
2022-08-24T08:04:32.911Z,2.08
2022-08-24T08:07:01.431Z,2.10
2022-08-24T08:09:29.276Z,2.00
2022-08-24T08:11:56.562Z,2.20
2022-08-24T08:14:23.738Z,2.08
2022-08-24T08:16:51.127Z,1.90
2022-08-24T08:19:18.482Z,1.90
2022-08-24T08:22:05.931Z,2.15
2022-08-24T08:24:33.275Z,2.22
2022-08-24T08:27:00.785Z,2.25
2022-08-24T08:29:28.066Z,1.88
2022-08-24T08:31:55.894Z,2.13
2022-08-24T08:34:23.067Z,2.33
2022-08-24T08:36:50.334Z,2.03
2022-08-24T08:39:18.259Z,2.10
2022-08-24T08:41:51.629Z,1.92
2022-08-24T08:44:25.763Z,1.98
2022-08-24T08:47:11.710Z,1.90
2022-08-24T08:49:41.875Z,2.25
2022-08-24T08:52:28.674Z,2.17
2022-08-24T08:55:09.866Z,2.55
2022-08-24T08:57:49.289Z,1.95
2022-08-24T09:00:16.686Z,2.10
2022-08-24T09:03:03.784Z,2.10
2022-08-24T09:05:30.977Z,2.10
2022-08-24T09:08:15.396Z,2.20
2022-08-24T09:10:45.710Z,2.20
2022-08-24T09:13:35.230Z,1.83
2022-08-24T09:16:02.819Z,1.83
2022-08-24T09:18:41.442Z,2.35
2022-08-24T09:21:28.632Z,1.92
2022-08-24T09:23:56.020Z,1.80
2022-08-24T09:26:26.938Z,1.80
2022-08-24T09:28:59.442Z,2.25
2022-08-24T09:34:09.835Z,1.90
2022-08-24T09:36:42.991Z,2.20
2022-08-24T09:39:10.127Z,2.30
2022-08-24T09:41:46.123Z,2.20
2022-08-24T09:44:32.185Z,2.08
2022-08-24T09:46:59.379Z,1.90
2022-08-24T09:49:45.266Z,2.30
2022-08-24T09:52:12.396Z,2.00
2022-08-24T09:55:02.161Z,2.00
2022-08-24T09:57:50.379Z,2.00
2022-08-24T10:00:30.394Z,1.90
2022-08-24T10:03:05.306Z,1.80
2022-08-24T10:05:51.469Z,2.20
2022-08-24T10:08:37.809Z,2.17
2022-08-24T10:11:17.154Z,1.90
2022-08-24T10:13:47.350Z,2.15
2022-08-24T10:16:17.891Z,2.10
2022-08-24T10:18:57.973Z,1.95
2022-08-24T10:21:40.322Z,2.30
2022-08-24T10:24:16.606Z,1.83
2022-08-24T10:27:02.299Z,2.30
2022-08-24T10:29:35.660Z,2.50
2022-08-24T10:32:21.560Z,2.50
2022-08-24T10:34:48.686Z,2.47
2022-08-24T10:37:42.338Z,2.40
2022-08-24T10:40:10.860Z,2.55
2022-08-24T10:42:56.569Z,2.92
2022-08-24T10:45:26.596Z,2.95
2022-08-24T10:48:12.391Z,3.10
2022-08-24T10:51:02.802Z,3.05
2022-08-24T10:53:31.194Z,3.20
2022-08-24T10:56:10.093Z,3.10
2022-08-24T10:58:57.487Z,2.95
2022-08-24T11:01:27.953Z,3.03
2022-08-24T11:03:58.411Z,2.60
2022-08-24T11:06:27.249Z,3.03
2022-08-24T11:08:56.407Z,3.25
2022-08-24T11:11:25.409Z,2.75
2022-08-24T11:13:52.596Z,2.70
2022-08-24T11:16:31.450Z,2.67
2022-08-24T11:19:00.406Z,2.60
2022-08-24T11:21:33.685Z,2.95
2022-08-24T11:24:02.767Z,2.92
2022-08-24T11:26:30.148Z,2.80
2022-08-24T11:29:01.830Z,3.30
2022-08-24T11:31:42.355Z,2.90
2022-08-24T11:34:11.784Z,2.65
2022-08-24T11:36:39.878Z,2.63
2022-08-24T11:39:20.633Z,3.17
2022-08-24T11:42:01.222Z,2.67
2022-08-24T11:44:42.354Z,2.90
2022-08-24T11:47:29.954Z,3.03
2022-08-24T11:50:23.499Z,2.88
2022-08-24T11:53:02.143Z,2.78
2022-08-24T11:55:51.918Z,2.95
2022-08-24T12:00:58.347Z,3.00
2022-08-24T12:03:28.635Z,3.78
2022-08-24T12:06:01.798Z,3.78
2022-08-24T12:08:28.943Z,3.00
2022-08-24T12:11:14.179Z,2.95
2022-08-24T12:14:04.928Z,3.22
2022-08-24T12:16:50.839Z,2.67
2022-08-24T12:19:21.095Z,2.35
2022-08-24T12:21:50.077Z,2.45
2022-08-24T12:24:21.738Z,2.63
2022-08-24T12:26:54.437Z,2.50
2022-08-24T12:29:48.283Z,2.50
2022-08-24T12:32:19.013Z,2.72
2022-08-24T12:34:58.395Z,2.60
2022-08-24T12:37:37.206Z,2.53
2022-08-24T12:40:14.390Z,2.50
2022-08-24T12:42:51.976Z,2.30
2022-08-24T12:45:20.495Z,2.28
2022-08-24T12:48:06.106Z,2.70
2022-08-24T12:50:52.256Z,2.47
2022-08-24T12:53:38.086Z,2.47
2022-08-24T12:56:24.232Z,2.33
2022-08-24T12:59:10.326Z,2.70
2022-08-24T13:01:41.060Z,2.60
2022-08-24T13:04:08.350Z,2.28
2022-08-24T13:06:48.533Z,2.70
2022-08-24T13:09:28.834Z,2.70
2022-08-24T13:11:59.190Z,2.13
2022-08-24T13:14:28.450Z,2.35
2022-08-24T13:16:58.625Z,2.35
2022-08-24T13:19:28.824Z,2.58
2022-08-24T13:22:00.855Z,2.20
2022-08-24T13:24:31.062Z,2.45
2022-08-24T13:26:59.641Z,2.45
2022-08-24T13:29:29.365Z,2.60
2022-08-24T13:31:59.683Z,2.30
2022-08-24T13:34:37.371Z,2.40
2022-08-24T13:37:18.719Z,2.17
2022-08-24T13:39:55.234Z,2.15
2022-08-24T13:42:41.818Z,2.20
2022-08-24T13:45:08.963Z,2.58
2022-08-24T13:47:45.034Z,2.78
2022-08-24T13:50:30.743Z,2.58
2022-08-24T13:53:10.243Z,2.15
2022-08-24T13:55:43.535Z,2.60
2022-08-24T13:58:19.406Z,2.25
2022-08-24T14:01:01.745Z,2.72
2022-08-24T14:03:40.095Z,2.00
2022-08-24T14:06:24.508Z,2.20
2022-08-24T14:08:58.359Z,2.10
2022-08-24T14:11:44.175Z,2.10
2022-08-24T14:14:15.914Z,2.55
2022-08-24T14:17:20.149Z,2.50
2022-08-24T14:19:59.367Z,2.30
2022-08-24T14:22:35.201Z,2.00
2022-08-24T14:25:21.319Z,2.40
2022-08-24T14:27:48.588Z,2.17
2022-08-24T14:30:18.805Z,3.35
2022-08-24T14:33:09.257Z,2.40
2022-08-24T14:35:42.527Z,2.30
2022-08-24T14:38:12.350Z,2.40
2022-08-24T14:40:55.753Z,2.55
2022-08-24T14:43:41.759Z,2.28
2022-08-24T14:46:09.017Z,2.10
2022-08-24T14:48:42.338Z,2.50
2022-08-24T14:51:16.929Z,2.13
2022-08-24T14:54:16.366Z,2.03
2022-08-24T14:56:49.555Z,2.40
2022-08-24T14:59:28.380Z,2.20
2022-08-24T15:02:16.137Z,2.40
2022-08-24T15:04:46.546Z,2.08
2022-08-24T15:07:13.695Z,2.08
2022-08-24T15:09:44.888Z,2.00
2022-08-24T15:12:17.093Z,2.05
2022-08-24T15:14:55.567Z,2.20
2022-08-24T15:17:27.035Z,2.33
2022-08-24T15:20:01.855Z,2.47
2022-08-24T15:24:56.043Z,2.28
2022-08-24T15:27:26.170Z,2.08
2022-08-24T15:29:55.443Z,2.00
2022-08-24T15:32:27.965Z,2.15
2022-08-24T15:34:58.166Z,2.60
2022-08-24T15:37:32.889Z,2.35
2022-08-24T15:40:00.830Z,2.00
2022-08-24T15:42:29.948Z,2.15
2022-08-24T15:44:59.944Z,2.22
2022-08-24T15:47:32.247Z,2.25
2022-08-24T15:50:03.797Z,2.40
2022-08-24T15:52:34.171Z,2.00
2022-08-24T15:55:03.526Z,2.30
2022-08-24T15:57:57.096Z,2.22
2022-08-24T16:00:44.850Z,2.15
2022-08-24T16:03:21.947Z,2.20
2022-08-24T16:05:51.234Z,2.20
2022-08-24T16:08:18.538Z,2.50
2022-08-24T16:10:53.178Z,2.50
2022-08-24T16:13:25.035Z,2.42
2022-08-24T16:15:52.138Z,2.38
2022-08-24T16:18:20.386Z,2.05
2022-08-24T16:20:49.388Z,2.75
2022-08-24T16:23:25.394Z,2.00
2022-08-24T16:26:12.482Z,2.20
2022-08-24T16:28:39.926Z,2.00
2022-08-24T16:31:08.181Z,2.42
2022-08-24T16:33:36.693Z,2.00
2022-08-24T16:36:11.955Z,2.10
2022-08-24T16:38:41.684Z,1.95
2022-08-24T16:41:12.184Z,2.00
2022-08-24T16:43:40.690Z,2.10
2022-08-24T16:46:08.973Z,1.73
2022-08-24T16:48:36.202Z,2.42
2022-08-24T16:51:03.931Z,2.13
2022-08-24T16:53:31.150Z,2.20
2022-08-24T16:55:58.616Z,2.10
2022-08-24T16:58:30.799Z,2.05
2022-08-24T17:00:58.111Z,2.10
2022-08-24T17:03:25.646Z,2.40
2022-08-24T17:05:52.843Z,2.00
2022-08-24T17:08:20.100Z,2.10
2022-08-24T17:10:47.399Z,2.10
2022-08-24T17:13:33.061Z,2.33
2022-08-24T17:16:02.259Z,2.00
2022-08-24T17:18:29.542Z,2.10
2022-08-24T17:21:01.260Z,1.85
2022-08-24T17:23:28.509Z,2.17
2022-08-24T17:25:55.709Z,2.28
2022-08-24T17:28:23.568Z,1.83
2022-08-24T17:30:51.634Z,2.20
2022-08-24T17:33:19.172Z,2.00
2022-08-24T17:35:46.636Z,2.17
2022-08-24T17:38:13.950Z,2.10
2022-08-24T17:40:41.082Z,1.77
2022-08-24T17:43:08.330Z,2.17
2022-08-24T17:45:35.894Z,1.60
2022-08-24T17:48:03.299Z,2.30
2022-08-24T17:50:30.678Z,2.17
2022-08-24T17:53:00.506Z,1.90
2022-08-24T17:55:28.288Z,2.25
2022-08-24T17:57:55.576Z,2.47
2022-08-24T18:00:22.857Z,2.10
2022-08-24T18:02:50.106Z,2.50
2022-08-24T18:05:17.863Z,1.95
2022-08-24T18:07:55.382Z,2.10
2022-08-24T18:10:25.375Z,2.03
2022-08-24T18:12:53.176Z,2.00
2022-08-24T18:15:20.759Z,2.10
2022-08-24T18:17:50.444Z,2.00
2022-08-24T18:20:20.894Z,1.95
2022-08-24T18:22:52.827Z,2.55
2022-08-24T18:25:23.177Z,2.80
2022-08-24T18:27:51.607Z,2.65
2022-08-24T18:30:25.223Z,2.47
2022-08-24T18:32:56.260Z,2.38
2022-08-24T18:35:23.576Z,2.50
2022-08-24T18:37:50.807Z,2.30
2022-08-24T18:40:21.162Z,2.38
2022-08-24T18:42:50.564Z,2.30
2022-08-24T18:45:18.088Z,2.20
2022-08-24T18:47:45.433Z,2.33
2022-08-24T18:50:21.180Z,2.35
2022-08-24T18:52:48.420Z,2.20
2022-08-24T18:55:16.469Z,2.17
2022-08-24T18:57:43.626Z,2.33
2022-08-24T19:00:11.210Z,2.50
2022-08-24T19:02:40.584Z,2.50
2022-08-24T19:05:08.083Z,2.83
2022-08-24T19:07:36.850Z,2.70
2022-08-24T19:10:05.030Z,2.40
2022-08-24T19:12:33.405Z,2.35
2022-08-24T19:15:01.582Z,2.58
2022-08-24T19:17:28.794Z,2.58
2022-08-24T19:19:56.231Z,2.75
2022-08-24T19:22:23.658Z,2.30
2022-08-24T19:24:50.922Z,2.88
2022-08-24T19:27:19.089Z,2.45
2022-08-24T19:29:55.517Z,2.10
2022-08-24T19:32:24.763Z,2.35
2022-08-24T19:34:52.931Z,2.50
2022-08-24T19:37:20.367Z,2.28
2022-08-24T19:39:47.861Z,2.97
2022-08-24T19:42:17.414Z,2.45
2022-08-24T19:45:03.055Z,2.67
2022-08-24T19:47:34.609Z,2.88
2022-08-24T19:50:02.511Z,2.53
2022-08-24T19:52:31.607Z,1.92
2022-08-24T19:54:59.127Z,2.78
2022-08-24T19:57:38.635Z,2.28
2022-08-24T20:00:20.391Z,2.50
2022-08-24T20:02:48.932Z,2.83
2022-08-24T20:05:17.006Z,2.55
2022-08-24T20:07:45.346Z,2.03
2022-08-24T20:10:13.308Z,2.30
2022-08-24T20:12:40.983Z,2.50
2022-08-24T20:15:08.584Z,2.28
2022-08-24T20:17:36.218Z,2.58
2022-08-24T20:20:04.268Z,2.20
2022-08-24T20:22:31.442Z,2.03
2022-08-24T20:24:58.627Z,2.40
2022-08-24T20:27:26.873Z,2.10
2022-08-24T20:29:54.995Z,2.60
2022-08-24T20:32:22.817Z,2.03
2022-08-24T20:34:50.047Z,2.15
2022-08-24T20:37:24.633Z,2.00
2022-08-24T20:39:52.062Z,2.30
2022-08-24T20:42:21.361Z,2.20
2022-08-24T20:44:50.245Z,2.83
2022-08-24T20:47:17.661Z,2.53
2022-08-24T20:49:45.422Z,2.30
2022-08-24T20:52:12.782Z,2.63
2022-08-24T20:54:40.146Z,2.50
2022-08-24T20:57:12.869Z,2.33
2022-08-24T20:59:40.063Z,3.15
2022-08-24T21:02:07.251Z,2.80
2022-08-24T21:04:34.372Z,2.80
2022-08-24T21:07:01.608Z,2.65
2022-08-24T21:09:28.847Z,2.58
2022-08-24T21:11:56.038Z,2.63
2022-08-24T21:14:23.177Z,2.55
2022-08-24T21:16:50.327Z,2.72
2022-08-24T21:19:17.817Z,2.70
2022-08-24T21:21:46.797Z,3.10
2022-08-24T21:24:14.191Z,3.25
2022-08-24T21:26:41.612Z,2.50
2022-08-24T21:29:09.871Z,2.60
2022-08-24T21:31:37.339Z,3.05
2022-08-24T21:34:24.750Z,2.83
2022-08-24T21:36:54.245Z,2.58
2022-08-24T21:39:21.751Z,2.80
2022-08-24T21:41:48.894Z,2.60
2022-08-24T21:44:16.932Z,2.88
2022-08-24T21:46:44.188Z,2.65
2022-08-24T21:49:12.237Z,2.83
2022-08-24T21:51:39.914Z,2.88
2022-08-24T21:54:07.082Z,2.80
2022-08-24T21:56:35.130Z,3.33
2022-08-24T21:59:03.070Z,2.65
2022-08-24T22:01:30.323Z,3.08
2022-08-24T22:03:58.373Z,3.33
2022-08-24T22:06:31.099Z,3.45
2022-08-24T22:08:59.258Z,3.33
2022-08-24T22:11:26.593Z,2.90
2022-08-24T22:13:54.323Z,3.60
2022-08-24T22:16:22.064Z,3.45
2022-08-24T22:18:49.478Z,3.70
2022-08-24T22:21:18.103Z,3.00
2022-08-24T22:23:45.328Z,3.35
2022-08-24T22:26:12.910Z,3.60
2022-08-24T22:28:41.184Z,3.88
2022-08-24T22:31:16.200Z,3.75
2022-08-24T22:33:43.483Z,3.67
2022-08-24T22:36:11.525Z,3.88
2022-08-24T22:38:39.315Z,3.53
2022-08-24T22:41:06.758Z,3.80
2022-08-24T22:43:52.564Z,3.45
2022-08-24T22:46:19.757Z,3.63
2022-08-24T22:48:46.992Z,3.30
2022-08-24T22:51:14.123Z,3.58
2022-08-24T22:53:41.390Z,3.60
2022-08-24T22:56:22.385Z,3.63
2022-08-24T22:58:50.075Z,3.85
2022-08-24T23:01:21.983Z,3.72
2022-08-24T23:03:49.795Z,4.40
2022-08-24T23:06:17.503Z,3.78
2022-08-24T23:08:45.133Z,4.20
2022-08-24T23:11:12.728Z,4.22
2022-08-24T23:13:40.086Z,4.10
2022-08-24T23:16:08.226Z,4.43
2022-08-24T23:18:54.318Z,4.72
2022-08-24T23:21:21.559Z,4.50
2022-08-24T23:23:50.449Z,4.05
2022-08-24T23:26:18.570Z,4.18
2022-08-24T23:28:50.323Z,4.25
2022-08-24T23:31:18.516Z,4.43
2022-08-24T23:33:45.766Z,3.95
2022-08-24T23:36:17.914Z,4.50
2022-08-24T23:38:45.178Z,4.13
2022-08-24T23:41:14.359Z,4.72
2022-08-24T23:43:41.758Z,4.60
2022-08-24T23:46:10.238Z,4.28
2022-08-24T23:48:37.519Z,4.65
2022-08-24T23:51:08.657Z,3.97
2022-08-24T23:53:36.202Z,4.57
2022-08-24T23:56:07.116Z,4.22
2022-08-24T23:58:34.590Z,4.65
